Time;durP1;ratioP1;P1;durP2;ratioP2;P2;SDS_P1;SDS_P2;PMS_P1;PMS_P2;Temp;Humidity;BMP_temperature;BMP_pressure;BME280_temperature;BME280_humidity;BME280_pressure;Samples;Min_cycle;Max_cycle;Signal;HPM_P1;HPM_P2
2022/12/10 00:01:08;;;;;;;0.50;0.50;;;-7.90;99.90;;;;;;5096819;28;20207;-74
2022/12/10 00:03:34;;;;;;;0.50;0.50;;;-8.00;99.90;;;;;;5114990;28;20188;-75
2022/12/10 00:06:03;;;;;;;0.40;0.40;;;-8.10;99.90;;;;;;5115437;28;20184;-74
2022/12/10 00:08:29;;;;;;;0.50;0.50;;;-8.10;99.90;;;;;;5097051;28;20188;-74
2022/12/10 00:10:55;;;;;;;0.50;0.50;;;-8.10;99.90;;;;;;5114792;28;20271;-74
2022/12/10 00:13:20;;;;;;;0.40;0.40;;;-8.20;99.90;;;;;;5115540;28;20270;-75
2022/12/10 00:15:46;;;;;;;0.50;0.50;;;-8.20;99.90;;;;;;5097172;28;20201;-74
2022/12/10 00:18:12;;;;;;;0.50;0.50;;;-8.20;99.90;;;;;;5096891;28;20195;-74
2022/12/10 00:20:38;;;;;;;0.50;0.50;;;-8.10;99.90;;;;;;5114814;28;20271;-75
2022/12/10 00:23:04;;;;;;;0.50;0.50;;;-8.10;99.90;;;;;;5095468;28;20313;-74
2022/12/10 00:25:31;;;;;;;0.50;0.50;;;-8.30;99.90;;;;;;5114961;28;20205;-74
2022/12/10 00:27:57;;;;;;;0.50;0.50;;;-8.30;99.90;;;;;;5096588;28;20278;-75
2022/12/10 00:30:23;;;;;;;0.50;0.50;;;-8.40;99.90;;;;;;5093325;28;20234;-75
2022/12/10 00:32:48;;;;;;;0.50;0.50;;;-8.40;99.90;;;;;;5113573;28;20195;-75
2022/12/10 00:35:14;;;;;;;0.50;0.50;;;-8.50;99.90;;;;;;5115034;28;20274;-74
2022/12/10 00:37:40;;;;;;;0.40;0.40;;;-8.60;99.90;;;;;;5114565;28;20248;-76
2022/12/10 00:40:06;;;;;;;0.40;0.40;;;-8.60;99.90;;;;;;5114785;28;20234;-75
2022/12/10 00:42:32;;;;;;;0.60;0.60;;;-8.70;99.90;;;;;;5114042;28;20257;-75
2022/12/10 00:44:57;;;;;;;0.50;0.50;;;-8.80;99.90;;;;;;5114223;28;20260;-74
2022/12/10 00:47:23;;;;;;;0.50;0.50;;;-8.80;99.90;;;;;;5114287;28;20198;-75
2022/12/10 00:49:49;;;;;;;0.50;0.50;;;-8.90;99.90;;;;;;5114603;28;20196;-74
2022/12/10 00:52:15;;;;;;;0.50;0.50;;;-8.90;99.90;;;;;;5092756;28;20231;-75
2022/12/10 00:54:40;;;;;;;0.50;0.50;;;-8.80;99.90;;;;;;5089743;28;20260;-75
2022/12/10 00:57:06;;;;;;;0.40;0.40;;;-8.70;99.90;;;;;;5114331;28;20665;-75
2022/12/10 00:59:32;;;;;;;0.50;0.50;;;-8.80;99.90;;;;;;5114064;28;20283;-75
2022/12/10 01:01:58;;;;;;;0.50;0.50;;;-8.80;99.90;;;;;;5114077;28;20218;-76
2022/12/10 01:04:24;;;;;;;0.50;0.50;;;-8.70;99.90;;;;;;5114036;28;20240;-76
2022/12/10 01:06:53;;;;;;;0.50;0.50;;;-8.80;99.90;;;;;;5095645;28;20199;-75
2022/12/10 01:09:25;;;;;;;0.50;0.50;;;-8.80;99.90;;;;;;5113863;28;20220;-75
2022/12/10 01:11:52;;;;;;;0.50;0.50;;;-8.90;99.90;;;;;;5113953;28;20562;-75
2022/12/10 01:14:27;;;;;;;0.50;0.50;;;-9.00;99.90;;;;;;5095687;28;20204;-76
2022/12/10 01:16:58;;;;;;;0.50;0.50;;;-9.00;99.90;;;;;;5113893;28;20260;-75
2022/12/10 01:19:24;;;;;;;0.50;0.50;;;-9.00;99.90;;;;;;5113450;28;20214;-75
2022/12/10 01:21:54;;;;;;;0.77;0.77;;;-9.10;99.90;;;;;;5113722;28;20211;-75
2022/12/10 01:24:21;;;;;;;0.50;0.50;;;-9.20;99.90;;;;;;5099360;28;20200;-75
2022/12/10 01:26:47;;;;;;;0.60;0.60;;;-9.20;99.90;;;;;;5093295;28;20200;-75
2022/12/10 01:29:13;;;;;;;0.60;0.60;;;-9.00;99.90;;;;;;5093455;28;20192;-75
2022/12/10 01:31:38;;;;;;;0.60;0.60;;;-9.10;99.90;;;;;;5093074;28;20254;-75
2022/12/10 01:34:06;;;;;;;0.50;0.50;;;-9.10;99.90;;;;;;5093187;28;20212;-75
2022/12/10 01:36:34;;;;;;;0.50;0.50;;;-9.10;99.90;;;;;;5093109;28;20194;-75
2022/12/10 01:39:01;;;;;;;0.50;0.50;;;-9.20;99.90;;;;;;5093393;28;20192;-75
2022/12/10 01:41:33;;;;;;;0.60;0.60;;;-9.20;99.90;;;;;;5092719;28;20310;-75
2022/12/10 01:44:23;;;;;;;3.10;1.33;;;-9.20;99.90;;;;;;5093246;28;20199;-75
2022/12/10 01:46:52;;;;;;;0.50;0.50;;;-9.20;99.90;;;;;;5092794;28;20568;-76
2022/12/10 01:49:21;;;;;;;0.57;0.57;;;-9.20;99.90;;;;;;5093630;28;20188;-74
2022/12/10 01:51:50;;;;;;;0.60;0.60;;;-9.20;99.90;;;;;;5118267;28;20200;-75
2022/12/10 01:54:26;;;;;;;0.50;0.50;;;-9.20;99.90;;;;;;5120021;28;20214;-75
2022/12/10 01:57:01;;;;;;;0.53;0.53;;;-9.20;99.90;;;;;;5119953;28;20201;-75
2022/12/10 01:59:28;;;;;;;0.50;0.50;;;-9.10;99.90;;;;;;5101491;28;20195;-75
2022/12/10 02:01:54;;;;;;;0.50;0.50;;;-9.10;99.90;;;;;;5101713;28;20626;-75
2022/12/10 02:04:52;;;;;;;0.50;0.50;;;-9.00;99.90;;;;;;5101733;28;20285;-75
2022/12/10 02:07:33;;;;;;;0.60;0.60;;;-9.00;99.90;;;;;;5080893;28;20682;-74
2022/12/10 02:10:25;;;;;;;0.50;0.50;;;-9.10;99.90;;;;;;5120116;28;20195;-75
2022/12/10 02:13:07;;;;;;;0.50;0.50;;;-9.20;99.90;;;;;;5101652;28;20200;-75
2022/12/10 02:15:44;;;;;;;0.50;0.50;;;-9.20;99.90;;;;;;5099239;28;20201;-75
2022/12/10 02:18:40;;;;;;;0.47;0.47;;;-9.20;99.90;;;;;;5092627;28;20245;-75
2022/12/10 02:21:18;;;;;;;0.53;0.53;;;-9.10;99.90;;;;;;5086240;28;20742;-74
2022/12/10 02:23:49;;;;;;;0.57;0.57;;;-8.90;99.90;;;;;;5099422;28;20192;-75
2022/12/10 02:26:27;;;;;;;0.60;0.60;;;-8.60;99.90;;;;;;5099481;28;20724;-75
2022/12/10 02:29:10;;;;;;;0.50;0.50;;;-8.40;99.90;;;;;;5081227;28;20652;-75
2022/12/10 02:31:39;;;;;;;0.50;0.50;;;-8.20;99.90;;;;;;5099085;28;20245;-75
2022/12/10 02:34:07;;;;;;;0.50;0.50;;;-8.00;99.90;;;;;;5099243;28;20210;-75
2022/12/10 02:36:37;;;;;;;0.50;0.50;;;-7.90;99.90;;;;;;5099097;28;20204;-75
2022/12/10 02:39:07;;;;;;;0.50;0.50;;;-7.70;99.90;;;;;;5099794;28;20223;-75
2022/12/10 02:41:37;;;;;;;0.60;0.60;;;-7.70;99.90;;;;;;5080825;28;20235;-75
2022/12/10 02:44:08;;;;;;;0.50;0.50;;;-7.50;99.90;;;;;;5099360;28;20192;-75
2022/12/10 02:46:36;;;;;;;0.70;0.70;;;-7.40;99.90;;;;;;5087707;28;20218;-75
2022/12/10 02:49:04;;;;;;;0.50;0.50;;;-7.40;99.90;;;;;;5111721;28;20226;-75
2022/12/10 02:51:30;;;;;;;0.50;0.50;;;-7.40;99.90;;;;;;5119548;28;20690;-75
2022/12/10 02:54:04;;;;;;;0.50;0.50;;;-7.30;99.90;;;;;;5119739;28;20191;-75
2022/12/10 02:56:58;;;;;;;0.50;0.50;;;-7.30;99.90;;;;;;5119557;28;20199;-75
2022/12/10 03:00:07;;;;;;;0.40;0.40;;;-7.40;99.90;;;;;;5101197;28;20207;-75
2022/12/10 03:03:10;;;;;;;0.50;0.50;;;-7.40;99.90;;;;;;5067605;28;20219;-75
2022/12/10 03:06:06;;;;;;;0.60;0.60;;;-7.40;99.90;;;;;;5097900;28;20250;-76
2022/12/10 03:08:46;;;;;;;0.50;0.50;;;-7.50;99.90;;;;;;5116084;28;20195;-75
2022/12/10 03:11:18;;;;;;;0.50;0.50;;;-7.50;99.90;;;;;;5116154;28;20664;-75
2022/12/10 03:13:59;;;;;;;0.40;0.40;;;-7.50;99.90;;;;;;5091128;28;20204;-75
2022/12/10 03:16:29;;;;;;;0.50;0.50;;;-7.50;99.90;;;;;;5116177;28;20718;-76
2022/12/10 03:19:00;;;;;;;0.50;0.50;;;-7.60;99.90;;;;;;5116259;28;20191;-76
2022/12/10 03:21:29;;;;;;;0.50;0.50;;;-7.50;99.90;;;;;;5116002;28;20205;-76
2022/12/10 03:23:55;;;;;;;0.60;0.60;;;-7.60;99.90;;;;;;5105665;28;20196;-76
2022/12/10 03:26:22;;;;;;;0.50;0.50;;;-7.50;99.90;;;;;;5095237;28;20188;-76
2022/12/10 03:29:03;;;;;;;0.40;0.40;;;-7.40;99.90;;;;;;5077238;28;20224;-76
2022/12/10 03:31:30;;;;;;;0.50;0.50;;;-7.30;99.90;;;;;;5095299;28;20646;-76
2022/12/10 03:33:56;;;;;;;0.40;0.40;;;-7.20;99.90;;;;;;5095465;28;20203;-75
2022/12/10 03:36:23;;;;;;;0.50;0.50;;;-7.10;99.90;;;;;;5095205;28;20203;-76
2022/12/10 03:38:50;;;;;;;0.50;0.50;;;-7.10;99.90;;;;;;5094158;28;20659;-76
2022/12/10 03:41:16;;;;;;;0.73;0.73;;;-6.90;99.90;;;;;;5095085;28;20224;-76
2022/12/10 03:43:56;;;;;;;0.50;0.50;;;-6.90;99.90;;;;;;5108824;28;20290;-76
2022/12/10 03:46:27;;;;;;;0.53;0.53;;;-7.00;99.90;;;;;;5115268;28;20191;-76
2022/12/10 03:48:53;;;;;;;0.50;0.50;;;-7.00;99.90;;;;;;5115125;28;20192;-76
2022/12/10 03:51:19;;;;;;;0.80;0.80;;;-6.90;99.90;;;;;;5115313;28;20206;-77
2022/12/10 03:53:45;;;;;;;0.50;0.50;;;-6.90;99.90;;;;;;5115142;28;20238;-77
2022/12/10 03:56:11;;;;;;;0.50;0.50;;;-6.80;99.90;;;;;;5115578;28;20199;-76
2022/12/10 03:58:37;;;;;;;0.40;0.40;;;-6.80;99.90;;;;;;5115199;28;20726;-76
2022/12/10 04:01:03;;;;;;;0.50;0.50;;;-6.80;99.90;;;;;;5110532;28;20222;-76
2022/12/10 04:03:29;;;;;;;0.47;0.47;;;-6.70;99.90;;;;;;5095955;28;20195;-77
2022/12/10 04:06:05;;;;;;;0.50;0.50;;;-6.60;99.90;;;;;;5115208;28;20195;-76
2022/12/10 04:08:30;;;;;;;0.60;0.60;;;-6.50;99.90;;;;;;5111177;28;20234;-76
2022/12/10 04:11:05;;;;;;;0.40;0.40;;;-6.50;99.90;;;;;;5076309;28;20220;-76
2022/12/10 04:16:29;;;;;;;0.50;0.50;;;-6.30;99.90;;;;;;5094711;28;20698;-77
2022/12/10 04:18:57;;;;;;;0.40;0.40;;;-6.20;99.90;;;;;;5094491;28;20333;-76
2022/12/10 04:26:55;;;;;;;0.40;0.40;;;-6.00;99.90;;;;;;5094836;28;20302;-77
2022/12/10 04:29:24;;;;;;;0.50;0.50;;;-5.90;99.90;;;;;;5076128;28;20207;-76
2022/12/10 04:31:50;;;;;;;0.40;0.40;;;-5.90;99.90;;;;;;5094217;28;20623;-77
2022/12/10 04:34:16;;;;;;;0.50;0.50;;;-5.90;99.90;;;;;;5094282;28;20647;-78
2022/12/10 04:36:42;;;;;;;0.50;0.50;;;-5.90;99.90;;;;;;5094132;28;20192;-76
2022/12/10 04:39:07;;;;;;;0.50;0.50;;;-5.80;99.90;;;;;;5098547;28;20211;-76
2022/12/10 04:41:33;;;;;;;0.50;0.50;;;-5.80;99.90;;;;;;5095722;28;20273;-77
2022/12/10 04:43:59;;;;;;;0.50;0.50;;;-5.80;99.90;;;;;;5096104;28;20681;-76
2022/12/10 04:46:25;;;;;;;0.40;0.40;;;-5.80;99.90;;;;;;5095863;28;20347;-76
2022/12/10 04:48:50;;;;;;;0.50;0.50;;;-5.80;99.90;;;;;;5114112;28;20274;-75
2022/12/10 04:51:16;;;;;;;0.50;0.50;;;-5.80;99.90;;;;;;5114159;28;20274;-76
2022/12/10 04:53:42;;;;;;;0.40;0.40;;;-5.70;99.90;;;;;;5095828;28;20199;-75
2022/12/10 04:56:07;;;;;;;0.50;0.50;;;-5.70;99.90;;;;;;5096071;28;20683;-76
2022/12/10 04:58:33;;;;;;;0.50;0.50;;;-5.70;99.90;;;;;;5114029;28;20227;-76
2022/12/10 05:01:04;;;;;;;0.40;0.40;;;-5.60;99.90;;;;;;5113966;28;20199;-75
2022/12/10 05:03:30;;;;;;;0.50;0.50;;;-5.70;99.90;;;;;;5110008;28;20288;-76
2022/12/10 05:06:00;;;;;;;0.43;0.43;;;-5.70;99.90;;;;;;5095443;28;20191;-76
2022/12/10 05:08:25;;;;;;;0.50;0.50;;;-5.70;99.90;;;;;;5113717;28;20192;-76
2022/12/10 05:10:51;;;;;;;0.57;0.57;;;-5.70;99.90;;;;;;5113927;28;20650;-76
2022/12/10 05:13:17;;;;;;;0.50;0.50;;;-5.70;99.90;;;;;;5113982;28;20195;-75
2022/12/10 05:15:43;;;;;;;0.50;0.50;;;-5.70;99.90;;;;;;5113953;28;20188;-76
2022/12/10 05:18:08;;;;;;;0.40;0.40;;;-5.70;99.90;;;;;;5113856;28;20247;-76
2022/12/10 05:20:34;;;;;;;0.50;0.50;;;-5.70;99.90;;;;;;5095251;28;20191;-76
2022/12/10 05:25:52;;;;;;;0.50;0.50;;;-5.70;99.90;;;;;;5092885;28;20571;-76
2022/12/10 05:28:22;;;;;;;0.40;0.40;;;-5.70;99.90;;;;;;5093122;28;20607;-76
2022/12/10 05:30:48;;;;;;;0.40;0.40;;;-5.70;99.90;;;;;;5092952;28;20220;-76
2022/12/10 05:33:14;;;;;;;0.50;0.50;;;-5.60;99.90;;;;;;5075173;28;20270;-76
2022/12/10 05:35:40;;;;;;;0.50;0.50;;;-5.60;99.90;;;;;;5102085;28;20211;-76
2022/12/10 05:38:06;;;;;;;0.50;0.50;;;-5.60;99.90;;;;;;5095258;28;20222;-75
2022/12/10 05:40:35;;;;;;;0.97;0.90;;;-5.60;99.90;;;;;;5112889;28;20199;-76
2022/12/10 05:43:01;;;;;;;0.50;0.50;;;-5.70;99.90;;;;;;5095151;28;20240;-76
2022/12/10 05:45:27;;;;;;;0.40;0.40;;;-5.70;99.90;;;;;;5113259;28;20191;-76
2022/12/10 05:47:53;;;;;;;0.40;0.40;;;-5.70;99.90;;;;;;5095316;28;20203;-75
2022/12/10 05:50:18;;;;;;;0.40;0.40;;;-5.60;99.90;;;;;;5113509;28;20199;-77
2022/12/10 05:52:44;;;;;;;0.50;0.50;;;-5.60;99.90;;;;;;5094970;28;20279;-76
2022/12/10 05:55:10;;;;;;;0.40;0.40;;;-5.60;99.90;;;;;;5095344;28;20681;-76
2022/12/10 05:57:36;;;;;;;0.40;0.40;;;-5.60;99.90;;;;;;5094758;28;20662;-76
2022/12/10 06:00:04;;;;;;;0.50;0.50;;;-5.60;99.90;;;;;;5113460;28;20285;-75
2022/12/10 06:02:33;;;;;;;0.50;0.50;;;-5.50;99.90;;;;;;5086026;28;20654;-75
2022/12/10 06:04:59;;;;;;;0.50;0.50;;;-5.50;99.90;;;;;;5095122;28;20286;-76
2022/12/10 06:07:25;;;;;;;0.50;0.50;;;-5.50;99.90;;;;;;5113021;28;20226;-76
2022/12/10 06:09:50;;;;;;;0.50;0.50;;;-5.50;99.90;;;;;;5094898;28;20196;-76
2022/12/10 06:12:17;;;;;;;0.50;0.50;;;-5.60;99.90;;;;;;5095038;28;20207;-76
2022/12/10 06:14:42;;;;;;;0.50;0.50;;;-5.50;99.90;;;;;;5112887;28;20220;-76
2022/12/10 06:17:08;;;;;;;0.50;0.50;;;-5.50;99.90;;;;;;5113090;28;20191;-75
2022/12/10 06:19:34;;;;;;;0.50;0.50;;;-5.50;99.90;;;;;;5094621;28;20203;-75
2022/12/10 06:22:00;;;;;;;0.50;0.50;;;-5.50;99.90;;;;;;5094756;28;20214;-76
2022/12/10 06:24:26;;;;;;;0.50;0.50;;;-5.60;99.90;;;;;;5091194;28;20670;-75
2022/12/10 06:26:52;;;;;;;0.50;0.50;;;-5.60;99.90;;;;;;5092654;28;20188;-76
2022/12/10 06:29:18;;;;;;;0.80;0.80;;;-5.50;99.90;;;;;;5092992;28;20216;-77
2022/12/10 06:31:44;;;;;;;0.60;0.60;;;-5.60;99.90;;;;;;5102053;28;20210;-76
2022/12/10 06:34:09;;;;;;;0.50;0.50;;;-5.50;99.90;;;;;;5113167;28;20206;-76
2022/12/10 06:36:35;;;;;;;0.40;0.40;;;-5.50;99.90;;;;;;5095995;28;20204;-76
2022/12/10 06:39:02;;;;;;;0.40;0.40;;;-5.50;99.90;;;;;;5098557;28;20210;-75
2022/12/10 06:41:27;;;;;;;0.50;0.50;;;-5.50;99.90;;;;;;5098110;28;20318;-75
2022/12/10 06:43:53;;;;;;;1.30;1.20;;;-5.50;99.90;;;;;;5098715;28;20712;-76
2022/12/10 06:46:20;;;;;;;0.50;0.50;;;-5.50;99.90;;;;;;5116736;28;20215;-77
2022/12/10 06:48:47;;;;;;;0.77;0.77;;;-5.50;99.90;;;;;;5116837;28;20191;-76
2022/12/10 06:51:13;;;;;;;0.50;0.50;;;-5.50;99.90;;;;;;5098687;28;20197;-76
2022/12/10 06:53:41;;;;;;;0.93;0.93;;;-5.50;99.90;;;;;;5116753;28;20678;-76
2022/12/10 06:56:10;;;;;;;0.50;0.50;;;-5.50;99.90;;;;;;5098491;28;20251;-75
2022/12/10 06:58:37;;;;;;;0.50;0.50;;;-5.50;99.90;;;;;;5116393;28;20195;-77
2022/12/10 07:01:27;;;;;;;0.60;0.60;;;-5.50;99.90;;;;;;5116582;28;20255;-75
2022/12/10 07:03:55;;;;;;;0.50;0.50;;;-5.50;99.90;;;;;;5116454;28;20192;-76
2022/12/10 07:06:21;;;;;;;0.50;0.50;;;-5.50;99.90;;;;;;5097830;28;20195;-77
2022/12/10 07:08:48;;;;;;;0.55;0.55;;;-5.50;99.90;;;;;;5116301;28;20728;-76
2022/12/10 07:11:16;;;;;;;0.50;0.50;;;-5.50;99.90;;;;;;5097926;28;20546;-76
2022/12/10 07:13:42;;;;;;;1.07;1.07;;;-5.50;99.90;;;;;;5116040;28;20224;-76
2022/12/10 07:16:16;;;;;;;1.20;1.20;;;-5.50;99.90;;;;;;5097746;28;20276;-76
2022/12/10 07:18:43;;;;;;;0.50;0.50;;;-5.50;99.90;;;;;;5115980;28;20696;-75
2022/12/10 07:21:19;;;;;;;0.87;0.83;;;-5.50;99.90;;;;;;5097707;28;20611;-76
2022/12/10 07:23:45;;;;;;;1.43;1.33;;;-5.50;99.90;;;;;;5088561;28;20261;-76
2022/12/10 07:26:11;;;;;;;0.50;0.50;;;-5.50;99.90;;;;;;5094056;28;20302;-75
2022/12/10 07:28:37;;;;;;;0.50;0.50;;;-5.50;99.90;;;;;;5090983;28;20223;-76
2022/12/10 07:31:04;;;;;;;0.40;0.40;;;-5.50;99.90;;;;;;5097687;28;20320;-75
2022/12/10 07:33:30;;;;;;;0.50;0.50;;;-5.50;99.90;;;;;;5115555;28;20607;-76
2022/12/10 07:35:56;;;;;;;0.40;0.40;;;-5.50;99.90;;;;;;5115840;28;20191;-75
2022/12/10 07:38:25;;;;;;;1.20;1.10;;;-5.50;99.90;;;;;;5097314;28;20625;-76
2022/12/10 07:40:51;;;;;;;0.50;0.50;;;-5.50;99.90;;;;;;5115513;28;20231;-75
2022/12/10 07:43:17;;;;;;;2.55;1.60;;;-5.50;99.90;;;;;;5115460;28;20214;-76
2022/12/10 07:45:43;;;;;;;0.50;0.50;;;-5.50;99.90;;;;;;5097161;28;20638;-75
2022/12/10 07:48:10;;;;;;;0.85;0.63;;;-5.50;99.90;;;;;;5095798;28;20450;-76
2022/12/10 07:50:36;;;;;;;0.80;0.80;;;-5.40;99.90;;;;;;5097020;28;20191;-76
2022/12/10 07:53:01;;;;;;;0.80;0.80;;;-5.40;99.90;;;;;;5115170;28;20278;-76
2022/12/10 07:55:27;;;;;;;0.40;0.40;;;-5.50;99.90;;;;;;5096853;28;20192;-76
2022/12/10 07:57:53;;;;;;;0.70;0.70;;;-5.50;99.90;;;;;;5097214;28;20195;-75
2022/12/10 08:00:19;;;;;;;0.40;0.40;;;-5.50;99.90;;;;;;5115220;28;20308;-76
2022/12/10 08:02:44;;;;;;;0.90;0.90;;;-5.50;99.90;;;;;;5096655;28;20211;-76
2022/12/10 08:05:10;;;;;;;2.00;0.60;;;-5.40;99.90;;;;;;5114208;28;20389;-75
2022/12/10 08:07:36;;;;;;;0.40;0.40;;;-5.40;99.90;;;;;;5096646;28;20325;-77
2022/12/10 08:10:02;;;;;;;0.53;0.53;;;-5.40;99.90;;;;;;5115203;28;20192;-76
2022/12/10 08:12:28;;;;;;;0.80;0.80;;;-5.40;99.90;;;;;;5096462;28;20195;-76
2022/12/10 08:14:54;;;;;;;0.60;0.60;;;-5.40;99.90;;;;;;5097040;28;20205;-76
2022/12/10 08:17:19;;;;;;;0.30;0.30;;;-5.40;99.90;;;;;;5095564;28;20397;-76
2022/12/10 08:19:45;;;;;;;0.52;0.52;;;-5.40;99.90;;;;;;5095563;28;20400;-76
2022/12/10 08:22:11;;;;;;;0.43;0.43;;;-5.40;99.90;;;;;;5096477;28;20577;-75
2022/12/10 08:24:37;;;;;;;1.90;1.03;;;-5.40;99.90;;;;;;5092773;28;20204;-76
2022/12/10 08:27:02;;;;;;;0.57;0.57;;;-5.40;99.90;;;;;;5096487;28;20188;-75
2022/12/10 08:29:28;;;;;;;0.50;0.50;;;-5.40;99.90;;;;;;5114431;28;20688;-76
2022/12/10 08:31:54;;;;;;;0.50;0.50;;;-5.40;99.90;;;;;;5114700;28;20199;-76
2022/12/10 08:34:19;;;;;;;0.50;0.50;;;-5.40;99.90;;;;;;5114379;28;20196;-76
2022/12/10 08:36:46;;;;;;;0.50;0.50;;;-5.40;99.90;;;;;;5114533;28;20199;-76
2022/12/10 08:39:16;;;;;;;0.50;0.50;;;-5.50;99.90;;;;;;5114911;28;20290;-76
2022/12/10 08:41:44;;;;;;;0.47;0.47;;;-5.50;99.90;;;;;;5095908;28;20322;-76
2022/12/10 08:44:10;;;;;;;0.93;0.93;;;-5.50;99.90;;;;;;5096166;28;20200;-76
2022/12/10 08:46:36;;;;;;;0.50;0.50;;;-5.60;99.90;;;;;;5114247;28;20184;-77
2022/12/10 08:49:02;;;;;;;0.50;0.50;;;-5.60;99.90;;;;;;5089302;28;20204;-76
2022/12/10 08:51:28;;;;;;;0.70;0.70;;;-5.60;99.90;;;;;;5111911;28;20192;-77
2022/12/10 08:53:55;;;;;;;0.50;0.50;;;-5.70;99.90;;;;;;5096428;28;20209;-76
2022/12/10 08:56:20;;;;;;;0.40;0.40;;;-5.70;99.90;;;;;;5114118;28;20222;-77
2022/12/10 08:58:46;;;;;;;0.70;0.70;;;-5.80;99.90;;;;;;5095882;28;20202;-76
2022/12/10 09:01:16;;;;;;;0.50;0.50;;;-5.80;99.90;;;;;;5114192;28;20245;-76
2022/12/10 09:03:42;;;;;;;0.50;0.50;;;-5.80;99.90;;;;;;5095669;28;20195;-76
2022/12/10 09:06:11;;;;;;;0.40;0.40;;;-5.80;99.90;;;;;;5095923;28;20655;-76
2022/12/10 09:08:37;;;;;;;0.50;0.50;;;-5.80;99.90;;;;;;5113789;28;20654;-77
2022/12/10 09:11:12;;;;;;;0.50;0.50;;;-5.90;99.90;;;;;;5095395;28;20199;-76
2022/12/10 09:13:38;;;;;;;0.50;0.50;;;-5.90;99.90;;;;;;5113564;28;20195;-75
2022/12/10 09:16:05;;;;;;;0.47;0.47;;;-5.90;99.90;;;;;;5095725;28;20202;-75
2022/12/10 09:18:30;;;;;;;0.67;0.63;;;-5.90;99.90;;;;;;5113758;28;20187;-75
2022/12/10 09:20:56;;;;;;;0.40;0.40;;;-5.90;99.90;;;;;;5095311;28;20200;-76
2022/12/10 09:23:22;;;;;;;0.43;0.43;;;-5.90;99.90;;;;;;5113435;28;20203;-76
2022/12/10 09:25:48;;;;;;;0.40;0.40;;;-5.80;99.90;;;;;;5095443;28;20255;-75
2022/12/10 09:28:14;;;;;;;0.47;0.47;;;-5.70;99.90;;;;;;5095451;28;20192;-75
2022/12/10 09:30:40;;;;;;;0.40;0.40;;;-5.70;99.90;;;;;;5113527;28;20294;-75
2022/12/10 09:33:05;;;;;;;0.60;0.60;;;-5.70;99.90;;;;;;5113610;28;20192;-77
2022/12/10 09:35:31;;;;;;;0.40;0.40;;;-5.60;99.90;;;;;;5095162;28;20192;-75
2022/12/10 09:37:57;;;;;;;0.60;0.60;;;-5.70;99.90;;;;;;5113672;28;20191;-75
2022/12/10 09:41:10;;;;;;;0.40;0.40;;;-5.60;99.90;;;;;;5113380;28;20191;-75
2022/12/10 09:43:52;;;;;;;0.50;0.50;;;-5.70;99.90;;;;;;5087711;28;20223;-75
2022/12/10 09:46:43;;;;;;;0.40;0.40;;;-5.70;99.90;;;;;;5107557;28;20253;-75
2022/12/10 09:49:19;;;;;;;0.50;0.50;;;-5.60;99.90;;;;;;5106301;28;20279;-75
2022/12/10 09:51:46;;;;;;;0.50;0.50;;;-5.70;99.90;;;;;;5094946;28;20741;-75
2022/12/10 09:54:17;;;;;;;0.60;0.60;;;-5.70;99.90;;;;;;5113457;28;20195;-75
2022/12/10 09:56:44;;;;;;;0.50;0.50;;;-5.70;99.90;;;;;;5095126;28;20209;-75
2022/12/10 09:59:27;;;;;;;0.50;0.50;;;-5.70;99.90;;;;;;5113458;28;20195;-75
2022/12/10 10:02:21;;;;;;;0.60;0.60;;;-5.80;99.90;;;;;;5113388;28;20207;-76
2022/12/10 10:04:47;;;;;;;0.73;0.73;;;-5.80;99.90;;;;;;5109364;28;20203;-76
2022/12/10 10:07:34;;;;;;;1.40;1.30;;;-5.90;99.90;;;;;;5113329;28;20206;-76
2022/12/10 10:10:05;;;;;;;1.33;1.23;;;-5.90;99.90;;;;;;5113419;28;20273;-77
2022/12/10 10:12:33;;;;;;;0.53;0.53;;;-5.90;99.90;;;;;;5116571;28;20271;-77
2022/12/10 10:15:14;;;;;;;4.33;2.00;;;-5.90;99.90;;;;;;5099249;28;20290;-77
2022/12/10 10:17:45;;;;;;;0.40;0.40;;;-5.90;99.90;;;;;;5117709;28;20226;-78
2022/12/10 10:20:11;;;;;;;0.53;0.53;;;-5.90;99.90;;;;;;5117280;28;20195;-77
2022/12/10 10:22:37;;;;;;;0.50;0.50;;;-5.90;99.90;;;;;;5098517;28;20218;-77
2022/12/10 10:25:05;;;;;;;0.50;0.50;;;-5.90;99.90;;;;;;5097345;28;20232;-77
2022/12/10 10:27:33;;;;;;;0.60;0.60;;;-5.90;99.90;;;;;;5078382;28;20605;-77
2022/12/10 10:30:01;;;;;;;1.53;1.43;;;-5.90;99.90;;;;;;5078759;28;20207;-77
2022/12/10 10:32:49;;;;;;;0.50;0.50;;;-5.90;99.90;;;;;;5078144;28;20235;-77
2022/12/10 10:35:27;;;;;;;0.50;0.50;;;-5.90;99.90;;;;;;5096832;28;20654;-77
2022/12/10 10:38:01;;;;;;;0.50;0.50;;;-5.80;99.90;;;;;;5078235;28;20203;-77
2022/12/10 10:40:40;;;;;;;0.50;0.50;;;-5.80;99.90;;;;;;5096311;28;20631;-77
2022/12/10 10:43:23;;;;;;;0.90;0.90;;;-5.80;99.90;;;;;;5060800;28;20232;-77
2022/12/10 10:45:58;;;;;;;0.50;0.50;;;-5.80;99.90;;;;;;5058278;28;20561;-77
2022/12/10 10:48:25;;;;;;;0.50;0.50;;;-5.80;99.90;;;;;;5075893;28;20277;-77
2022/12/10 10:50:54;;;;;;;0.50;0.50;;;-5.80;99.90;;;;;;5058060;28;20232;-77
2022/12/10 10:53:28;;;;;;;0.43;0.43;;;-5.80;99.90;;;;;;5075784;28;20201;-78
2022/12/10 10:55:56;;;;;;;2.30;1.90;;;-5.80;99.90;;;;;;5057816;28;20200;-77
2022/12/10 10:58:24;;;;;;;0.40;0.40;;;-5.90;99.90;;;;;;5057768;28;20205;-77
2022/12/10 11:01:08;;;;;;;0.50;0.50;;;-5.90;99.90;;;;;;5075970;28;20204;-77
2022/12/10 11:03:36;;;;;;;0.50;0.50;;;-5.90;99.90;;;;;;5075988;28;20204;-77
2022/12/10 11:06:07;;;;;;;0.40;0.40;;;-5.90;99.90;;;;;;5057890;28;20223;-79
2022/12/10 11:08:34;;;;;;;1.27;1.17;;;-5.90;99.90;;;;;;5058013;28;20262;-77
2022/12/10 11:11:20;;;;;;;0.50;0.50;;;-5.90;99.90;;;;;;5057699;28;20193;-77
2022/12/10 11:13:46;;;;;;;0.50;0.50;;;-6.00;99.90;;;;;;5075762;28;20683;-77
2022/12/10 11:16:20;;;;;;;0.40;0.40;;;-6.10;99.90;;;;;;5077625;28;20236;-77
2022/12/10 11:19:01;;;;;;;0.70;0.70;;;-6.10;99.90;;;;;;5095792;28;20198;-77
2022/12/10 11:21:29;;;;;;;1.00;1.00;;;-6.10;99.90;;;;;;5095852;28;20204;-77
2022/12/10 11:23:56;;;;;;;0.60;0.60;;;-6.10;99.90;;;;;;5076199;28;20561;-77
2022/12/10 11:26:24;;;;;;;0.50;0.50;;;-6.10;99.90;;;;;;5095566;28;20677;-77
2022/12/10 11:29:14;;;;;;;0.60;0.60;;;-6.10;99.90;;;;;;5095836;28;20674;-77
2022/12/10 11:32:27;;;;;;;0.80;0.80;;;-6.10;99.90;;;;;;5094190;28;20292;-78
2022/12/10 11:35:05;;;;;;;0.40;0.40;;;-6.20;99.90;;;;;;5088186;28;20257;-77
2022/12/10 11:37:40;;;;;;;0.70;0.70;;;-6.20;99.90;;;;;;5077086;28;20682;-77
2022/12/10 11:40:33;;;;;;;1.60;1.07;;;-6.20;99.90;;;;;;5095270;28;20211;-77
2022/12/10 11:43:11;;;;;;;0.50;0.50;;;-6.20;99.90;;;;;;5095929;28;20690;-77
2022/12/10 11:45:40;;;;;;;0.50;0.50;;;-6.20;99.90;;;;;;5115527;28;20184;-77
2022/12/10 11:48:08;;;;;;;0.50;0.50;;;-6.20;99.90;;;;;;5115741;28;20719;-75
2022/12/10 11:50:47;;;;;;;0.50;0.50;;;-6.30;99.90;;;;;;5115622;28;20695;-78
2022/12/10 11:53:52;;;;;;;1.13;0.73;;;-6.30;99.90;;;;;;5115695;28;20244;-77
2022/12/10 11:56:27;;;;;;;0.60;0.60;;;-6.30;99.90;;;;;;5115241;28;20593;-76
2022/12/10 11:59:17;;;;;;;0.50;0.50;;;-6.30;99.90;;;;;;5115012;28;20194;-78
2022/12/10 12:01:49;;;;;;;0.50;0.50;;;-6.30;99.90;;;;;;5097245;28;20678;-79
2022/12/10 12:04:48;;;;;;;0.50;0.50;;;-6.30;99.90;;;;;;5115142;28;20279;-76
2022/12/10 12:07:35;;;;;;;0.60;0.60;;;-6.40;99.90;;;;;;5117578;28;20188;-76
2022/12/10 12:10:13;;;;;;;0.40;0.40;;;-6.40;99.90;;;;;;5109210;28;20208;-78
2022/12/10 12:12:39;;;;;;;0.40;0.40;;;-6.40;99.90;;;;;;5114813;28;20198;-77
2022/12/10 12:15:20;;;;;;;0.98;0.95;;;-6.40;99.90;;;;;;5096095;28;20430;-76
2022/12/10 12:17:55;;;;;;;0.40;0.40;;;-6.40;99.90;;;;;;5115019;28;20634;-76
2022/12/10 12:20:30;;;;;;;1.53;1.43;;;-6.40;99.90;;;;;;5114826;28;20187;-77
2022/12/10 12:23:14;;;;;;;0.50;0.50;;;-6.40;99.90;;;;;;5115020;28;20214;-76
2022/12/10 12:25:51;;;;;;;0.50;0.50;;;-6.40;99.90;;;;;;5096493;28;20203;-76
2022/12/10 12:28:31;;;;;;;0.50;0.50;;;-6.30;99.90;;;;;;5114892;28;20277;-76
2022/12/10 12:31:08;;;;;;;0.47;0.47;;;-6.30;99.90;;;;;;5114912;28;20194;-76
2022/12/10 12:34:01;;;;;;;0.57;0.57;;;-6.30;99.90;;;;;;5095742;28;20216;-76
2022/12/10 12:36:30;;;;;;;0.50;0.50;;;-6.40;99.90;;;;;;5114253;28;20188;-77
2022/12/10 12:39:18;;;;;;;0.50;0.50;;;-6.50;99.90;;;;;;5096321;28;20204;-77
2022/12/10 12:41:47;;;;;;;0.50;0.50;;;-6.50;99.90;;;;;;5114317;28;20231;-76
2022/12/10 12:44:41;;;;;;;0.40;0.40;;;-6.40;99.90;;;;;;5096491;28;20192;-76
2022/12/10 12:47:23;;;;;;;0.40;0.40;;;-6.40;99.90;;;;;;5096277;28;20226;-75
2022/12/10 12:49:50;;;;;;;0.50;0.50;;;-6.40;99.90;;;;;;5114340;28;20613;-75
2022/12/10 12:52:49;;;;;;;0.50;0.50;;;-6.40;99.90;;;;;;5114393;28;20187;-76
2022/12/10 12:55:53;;;;;;;0.50;0.50;;;-6.50;99.90;;;;;;5114203;28;20204;-76
2022/12/10 12:58:51;;;;;;;0.50;0.50;;;-6.50;99.90;;;;;;5057835;28;20207;-76
2022/12/10 13:01:35;;;;;;;0.50;0.50;;;-6.50;99.90;;;;;;5095286;28;20267;-76
2022/12/10 13:04:02;;;;;;;0.40;0.40;;;-6.50;99.90;;;;;;5096046;28;20195;-76
2022/12/10 13:06:30;;;;;;;0.50;0.50;;;-6.50;99.90;;;;;;5114016;28;20600;-77
2022/12/10 13:09:12;;;;;;;0.40;0.40;;;-6.50;99.90;;;;;;5095909;28;20203;-76
2022/12/10 13:11:41;;;;;;;0.40;0.40;;;-6.60;99.90;;;;;;5113603;28;20703;-75
2022/12/10 13:14:10;;;;;;;0.47;0.47;;;-6.60;99.90;;;;;;5114039;28;20202;-75
2022/12/10 13:16:41;;;;;;;0.40;0.40;;;-6.60;99.90;;;;;;5113679;28;20199;-77
2022/12/10 13:19:18;;;;;;;0.50;0.50;;;-6.70;99.90;;;;;;5113922;28;20650;-76